sensor_id;sensor_type;location;lat;lon;timestamp;pressure;altitude;pressure_sealevel;temperature;humidity
75740;BME280;64357;51.344;6.550;2023-08-12T00:00:45;52833.84;;;-144.65;100.00
75740;BME280;64357;51.344;6.550;2023-08-12T00:04:12;52833.84;;;-144.65;100.00
75740;BME280;64357;51.344;6.550;2023-08-12T00:07:39;52833.84;;;-144.65;100.00
75740;BME280;64357;51.344;6.550;2023-08-12T00:11:05;52833.84;;;-144.65;100.00
75740;BME280;64357;51.344;6.550;2023-08-12T00:14:29;52833.84;;;-144.65;100.00
75740;BME280;64357;51.344;6.550;2023-08-12T00:17:58;52833.84;;;-144.65;100.00
75740;BME280;64357;51.344;6.550;2023-08-12T00:21:25;52833.84;;;-144.65;100.00
75740;BME280;64357;51.344;6.550;2023-08-12T00:24:51;52833.84;;;-144.65;100.00
75740;BME280;64357;51.344;6.550;2023-08-12T00:28:16;52833.84;;;-144.65;100.00
75740;BME280;64357;51.344;6.550;2023-08-12T00:31:46;52833.84;;;-144.65;100.00
75740;BME280;64357;51.344;6.550;2023-08-12T00:35:10;52833.84;;;-144.65;100.00
75740;BME280;64357;51.344;6.550;2023-08-12T00:38:39;52833.84;;;-144.65;100.00
75740;BME280;64357;51.344;6.550;2023-08-12T00:42:10;52833.84;;;-144.65;100.00
75740;BME280;64357;51.344;6.550;2023-08-12T00:45:34;52833.84;;;-144.65;100.00
75740;BME280;64357;51.344;6.550;2023-08-12T00:49:00;52833.84;;;-144.65;100.00
75740;BME280;64357;51.344;6.550;2023-08-12T00:52:24;52833.84;;;-144.65;100.00
75740;BME280;64357;51.344;6.550;2023-08-12T00:55:48;52833.84;;;-144.65;100.00
75740;BME280;64357;51.344;6.550;2023-08-12T00:59:12;52833.84;;;-144.65;100.00
75740;BME280;64357;51.344;6.550;2023-08-12T01:02:44;52833.84;;;-144.65;100.00
75740;BME280;64357;51.344;6.550;2023-08-12T01:06:13;52833.84;;;-144.65;100.00
75740;BME280;64357;51.344;6.550;2023-08-12T01:09:42;52833.84;;;-144.65;100.00
75740;BME280;64357;51.344;6.550;2023-08-12T01:13:37;52833.84;;;-144.65;100.00
75740;BME280;64357;51.344;6.550;2023-08-12T01:17:08;52833.84;;;-144.65;100.00
75740;BME280;64357;51.344;6.550;2023-08-12T01:20:39;52833.84;;;-144.65;100.00
75740;BME280;64357;51.344;6.550;2023-08-12T01:23:46;101364.91;;;20.93;100.00
75740;BME280;64357;51.344;6.550;2023-08-12T01:26:13;101254.81;;;20.13;100.00
75740;BME280;64357;51.344;6.550;2023-08-12T01:28:52;101278.00;;;20.23;100.00
75740;BME280;64357;51.344;6.550;2023-08-12T01:31:41;101287.28;;;20.33;100.00
75740;BME280;64357;51.344;6.550;2023-08-12T01:34:26;101294.88;;;20.30;100.00
75740;BME280;64357;51.344;6.550;2023-08-12T01:37:59;52833.84;;;-144.65;100.00
75740;BME280;64357;51.344;6.550;2023-08-12T01:40:39;101270.13;;;20.35;100.00
75740;BME280;64357;51.344;6.550;2023-08-12T01:43:14;101275.69;;;20.28;100.00
75740;BME280;64357;51.344;6.550;2023-08-12T01:45:44;101265.31;;;20.28;100.00
75740;BME280;64357;51.344;6.550;2023-08-12T01:48:13;101240.78;;;20.23;100.00
75740;BME280;64357;51.344;6.550;2023-08-12T01:50:45;101228.88;;;20.13;100.00
75740;BME280;64357;51.344;6.550;2023-08-12T01:53:14;101225.16;;;20.10;100.00
75740;BME280;64357;51.344;6.550;2023-08-12T01:55:45;101252.56;;;20.31;100.00
75740;BME280;64357;51.344;6.550;2023-08-12T01:58:19;101221.41;;;20.18;100.00
75740;BME280;64357;51.344;6.550;2023-08-12T02:00:45;101248.56;;;20.36;100.00
75740;BME280;64357;51.344;6.550;2023-08-12T02:03:15;101236.28;;;20.34;100.00
75740;BME280;64357;51.344;6.550;2023-08-12T02:05:42;101247.88;;;20.39;100.00
75740;BME280;64357;51.344;6.550;2023-08-12T02:08:14;101235.78;;;20.26;100.00
75740;BME280;64357;51.344;6.550;2023-08-12T02:10:40;101230.69;;;20.28;100.00
75740;BME280;64357;51.344;6.550;2023-08-12T02:13:06;101244.47;;;20.40;100.00
75740;BME280;64357;51.344;6.550;2023-08-12T02:15:31;101245.19;;;20.37;100.00
75740;BME280;64357;51.344;6.550;2023-08-12T02:18:01;101229.28;;;20.33;100.00
75740;BME280;64357;51.344;6.550;2023-08-12T02:20:29;101222.22;;;20.30;100.00
75740;BME280;64357;51.344;6.550;2023-08-12T02:22:54;101241.09;;;20.41;100.00
75740;BME280;64357;51.344;6.550;2023-08-12T02:25:20;101219.94;;;20.35;100.00
75740;BME280;64357;51.344;6.550;2023-08-12T02:27:45;101232.28;;;20.39;100.00
75740;BME280;64357;51.344;6.550;2023-08-12T02:30:11;101224.31;;;20.36;100.00
75740;BME280;64357;51.344;6.550;2023-08-12T02:32:39;101207.25;;;20.26;100.00
75740;BME280;64357;51.344;6.550;2023-08-12T02:35:09;101217.84;;;20.29;100.00
75740;BME280;64357;51.344;6.550;2023-08-12T02:37:34;101211.53;;;20.26;100.00
75740;BME280;64357;51.344;6.550;2023-08-12T02:40:02;101226.59;;;20.31;100.00
75740;BME280;64357;51.344;6.550;2023-08-12T02:42:30;101218.03;;;20.32;100.00
75740;BME280;64357;51.344;6.550;2023-08-12T02:44:56;101210.81;;;20.28;100.00
75740;BME280;64357;51.344;6.550;2023-08-12T02:47:22;101215.03;;;20.26;100.00
75740;BME280;64357;51.344;6.550;2023-08-12T02:49:59;101206.91;;;20.21;100.00
75740;BME280;64357;51.344;6.550;2023-08-12T02:52:26;101205.84;;;20.18;100.00
75740;BME280;64357;51.344;6.550;2023-08-12T02:54:56;101166.47;;;19.98;100.00
75740;BME280;64357;51.344;6.550;2023-08-12T02:57:23;101204.47;;;20.23;100.00
75740;BME280;64357;51.344;6.550;2023-08-12T02:59:51;101172.56;;;19.99;100.00
75740;BME280;64357;51.344;6.550;2023-08-12T03:02:20;101173.69;;;20.03;100.00
75740;BME280;64357;51.344;6.550;2023-08-12T03:04:48;101163.31;;;20.03;100.00
75740;BME280;64357;51.344;6.550;2023-08-12T03:07:14;101199.06;;;20.20;100.00
75740;BME280;64357;51.344;6.550;2023-08-12T03:09:40;101187.56;;;20.16;100.00
75740;BME280;64357;51.344;6.550;2023-08-12T03:12:09;101188.50;;;20.30;100.00
75740;BME280;64357;51.344;6.550;2023-08-12T03:14:39;101158.34;;;20.06;100.00
75740;BME280;64357;51.344;6.550;2023-08-12T03:17:04;101193.47;;;20.27;100.00
75740;BME280;64357;51.344;6.550;2023-08-12T03:19:30;101151.16;;;20.02;100.00
75740;BME280;64357;51.344;6.550;2023-08-12T03:21:56;101160.44;;;20.11;100.00
75740;BME280;64357;51.344;6.550;2023-08-12T03:24:21;101178.09;;;20.17;100.00
75740;BME280;64357;51.344;6.550;2023-08-12T03:26:48;101174.59;;;20.16;100.00
75740;BME280;64357;51.344;6.550;2023-08-12T03:29:14;101170.81;;;20.11;100.00
75740;BME280;64357;51.344;6.550;2023-08-12T03:31:41;101178.78;;;20.14;100.00
75740;BME280;64357;51.344;6.550;2023-08-12T03:34:07;101171.59;;;20.10;100.00
75740;BME280;64357;51.344;6.550;2023-08-12T03:36:35;101177.88;;;20.14;100.00
75740;BME280;64357;51.344;6.550;2023-08-12T03:39:02;101177.09;;;20.15;100.00
75740;BME280;64357;51.344;6.550;2023-08-12T03:41:28;101158.63;;;20.10;100.00
75740;BME280;64357;51.344;6.550;2023-08-12T03:43:54;101157.72;;;20.10;100.00
75740;BME280;64357;51.344;6.550;2023-08-12T03:46:20;101157.22;;;20.15;100.00
75740;BME280;64357;51.344;6.550;2023-08-12T03:48:45;101141.97;;;20.07;100.00
75740;BME280;64357;51.344;6.550;2023-08-12T03:51:10;101139.69;;;20.11;100.00
75740;BME280;64357;51.344;6.550;2023-08-12T03:53:36;101137.88;;;20.10;100.00
75740;BME280;64357;51.344;6.550;2023-08-12T03:56:02;101143.59;;;20.18;100.00
75740;BME280;64357;51.344;6.550;2023-08-12T03:58:28;101144.25;;;20.15;100.00
75740;BME280;64357;51.344;6.550;2023-08-12T04:00:53;101139.19;;;20.17;100.00
75740;BME280;64357;51.344;6.550;2023-08-12T04:03:19;101104.06;;;19.95;100.00
75740;BME280;64357;51.344;6.550;2023-08-12T04:05:48;101127.63;;;20.12;100.00
75740;BME280;64357;51.344;6.550;2023-08-12T04:08:15;101104.16;;;19.97;100.00
75740;BME280;64357;51.344;6.550;2023-08-12T04:10:44;101126.81;;;20.13;100.00
75740;BME280;64357;51.344;6.550;2023-08-12T04:13:10;101116.63;;;20.03;100.00
75740;BME280;64357;51.344;6.550;2023-08-12T04:15:40;101130.31;;;20.13;100.00
75740;BME280;64357;51.344;6.550;2023-08-12T04:18:05;101139.06;;;20.15;100.00
75740;BME280;64357;51.344;6.550;2023-08-12T04:20:31;101123.81;;;20.07;100.00
75740;BME280;64357;51.344;6.550;2023-08-12T04:22:58;101094.19;;;19.90;100.00
75740;BME280;64357;51.344;6.550;2023-08-12T04:25:23;101078.53;;;19.88;100.00
75740;BME280;64357;51.344;6.550;2023-08-12T04:27:52;101128.91;;;20.18;100.00
75740;BME280;64357;51.344;6.550;2023-08-12T04:30:21;101092.47;;;19.90;100.00
75740;BME280;64357;51.344;6.550;2023-08-12T04:32:53;101091.69;;;19.91;100.00
75740;BME280;64357;51.344;6.550;2023-08-12T04:35:31;101088.41;;;19.94;100.00
75740;BME280;64357;51.344;6.550;2023-08-12T04:38:00;101106.47;;;20.06;100.00
75740;BME280;64357;51.344;6.550;2023-08-12T04:40:31;101078.81;;;19.93;100.00
75740;BME280;64357;51.344;6.550;2023-08-12T04:42:58;101104.75;;;20.19;100.00
75740;BME280;64357;51.344;6.550;2023-08-12T04:45:44;101081.63;;;20.09;100.00
75740;BME280;64357;51.344;6.550;2023-08-12T04:48:10;101085.91;;;20.09;100.00
75740;BME280;64357;51.344;6.550;2023-08-12T04:50:35;101063.94;;;20.04;100.00
75740;BME280;64357;51.344;6.550;2023-08-12T04:53:01;101096.00;;;20.17;100.00
75740;BME280;64357;51.344;6.550;2023-08-12T04:55:27;101083.22;;;20.07;100.00
75740;BME280;64357;51.344;6.550;2023-08-12T04:57:52;101068.75;;;19.97;100.00
75740;BME280;64357;51.344;6.550;2023-08-12T05:00:19;101065.16;;;19.95;100.00
75740;BME280;64357;51.344;6.550;2023-08-12T05:03:04;101099.28;;;20.15;100.00
75740;BME280;64357;51.344;6.550;2023-08-12T05:05:40;101072.34;;;20.00;100.00
75740;BME280;64357;51.344;6.550;2023-08-12T05:08:14;101084.19;;;20.09;100.00
75740;BME280;64357;51.344;6.550;2023-08-12T05:10:51;101095.59;;;20.11;100.00
75740;BME280;64357;51.344;6.550;2023-08-12T05:13:17;101059.56;;;19.89;100.00
75740;BME280;64357;51.344;6.550;2023-08-12T05:15:47;101055.88;;;19.86;100.00
75740;BME280;64357;51.344;6.550;2023-08-12T05:18:43;101085.59;;;20.04;100.00
75740;BME280;64357;51.344;6.550;2023-08-12T05:21:15;101095.47;;;20.10;100.00
75740;BME280;64357;51.344;6.550;2023-08-12T05:23:46;101073.94;;;19.97;100.00
75740;BME280;64357;51.344;6.550;2023-08-12T05:26:12;101048.19;;;19.87;100.00
75740;BME280;64357;51.344;6.550;2023-08-12T05:28:43;101031.06;;;19.89;100.00
75740;BME280;64357;51.344;6.550;2023-08-12T05:31:17;101072.34;;;20.13;100.00
75740;BME280;64357;51.344;6.550;2023-08-12T05:33:56;101047.19;;;19.98;100.00
75740;BME280;64357;51.344;6.550;2023-08-12T05:36:36;101036.94;;;20.00;100.00
75740;BME280;64357;51.344;6.550;2023-08-12T05:39:34;101051.50;;;20.11;100.00
75740;BME280;64357;51.344;6.550;2023-08-12T05:42:00;101035.94;;;19.98;100.00
75740;BME280;64357;51.344;6.550;2023-08-12T05:44:25;101074.44;;;20.18;100.00
75740;BME280;64357;51.344;6.550;2023-08-12T05:46:54;101067.47;;;20.17;100.00
75740;BME280;64357;51.344;6.550;2023-08-12T05:49:22;101070.06;;;20.17;100.00
75740;BME280;64357;51.344;6.550;2023-08-12T05:51:48;101074.22;;;20.15;100.00
75740;BME280;64357;51.344;6.550;2023-08-12T05:54:15;101078.53;;;20.15;100.00
75740;BME280;64357;51.344;6.550;2023-08-12T05:56:43;101076.50;;;20.11;100.00
75740;BME280;64357;51.344;6.550;2023-08-12T05:59:11;101092.88;;;20.10;100.00
75740;BME280;64357;51.344;6.550;2023-08-12T06:02:11;101059.00;;;19.93;100.00
75740;BME280;64357;51.344;6.550;2023-08-12T06:04:36;101071.44;;;19.99;100.00
75740;BME280;64357;51.344;6.550;2023-08-12T06:07:04;101086.41;;;20.03;100.00
75740;BME280;64357;51.344;6.550;2023-08-12T06:09:30;101076.34;;;19.94;100.00
75740;BME280;64357;51.344;6.550;2023-08-12T06:11:55;101068.94;;;19.87;100.00
75740;BME280;64357;51.344;6.550;2023-08-12T06:14:25;101073.03;;;19.97;100.00
75740;BME280;64357;51.344;6.550;2023-08-12T06:16:53;101083.09;;;19.92;100.00
75740;BME280;64357;51.344;6.550;2023-08-12T06:19:18;101077.16;;;19.93;100.00
75740;BME280;64357;51.344;6.550;2023-08-12T06:21:47;101077.00;;;19.92;100.00
75740;BME280;64357;51.344;6.550;2023-08-12T06:24:14;101067.44;;;19.91;100.00
75740;BME280;64357;51.344;6.550;2023-08-12T06:26:46;101058.38;;;19.84;100.00
75740;BME280;64357;51.344;6.550;2023-08-12T06:29:15;101059.75;;;19.92;100.00
75740;BME280;64357;51.344;6.550;2023-08-12T06:31:55;101063.25;;;19.93;100.00
75740;BME280;64357;51.344;6.550;2023-08-12T06:34:20;101063.25;;;19.93;100.00
75740;BME280;64357;51.344;6.550;2023-08-12T06:36:53;101058.19;;;19.94;100.00
75740;BME280;64357;51.344;6.550;2023-08-12T06:39:34;101051.09;;;19.92;100.00
75740;BME280;64357;51.344;6.550;2023-08-12T06:42:05;101047.91;;;19.96;100.00
75740;BME280;64357;51.344;6.550;2023-08-12T06:44:32;101060.66;;;19.93;100.00
75740;BME280;64357;51.344;6.550;2023-08-12T06:47:01;101046.72;;;19.91;100.00
75740;BME280;64357;51.344;6.550;2023-08-12T06:49:37;101027.25;;;19.84;100.00
75740;BME280;64357;51.344;6.550;2023-08-12T06:52:03;101032.34;;;19.96;100.00
75740;BME280;64357;51.344;6.550;2023-08-12T06:54:29;101024.97;;;19.89;100.00
75740;BME280;64357;51.344;6.550;2023-08-12T06:56:59;101026.34;;;19.97;100.00
75740;BME280;64357;51.344;6.550;2023-08-12T06:59:44;101041.31;;;20.01;100.00
75740;BME280;64357;51.344;6.550;2023-08-12T07:02:13;101032.53;;;19.99;100.00
75740;BME280;64357;51.344;6.550;2023-08-12T07:04:41;101011.38;;;19.93;100.00
75740;BME280;64357;51.344;6.550;2023-08-12T07:07:07;101022.38;;;20.02;100.00
75740;BME280;64357;51.344;6.550;2023-08-12T07:09:35;101023.56;;;20.07;100.00
75740;BME280;64357;51.344;6.550;2023-08-12T07:12:02;101028.03;;;20.10;100.00
75740;BME280;64357;51.344;6.550;2023-08-12T07:14:30;101020.84;;;20.19;100.00
75740;BME280;64357;51.344;6.550;2023-08-12T07:16:57;101026.13;;;20.20;100.00
75740;BME280;64357;51.344;6.550;2023-08-12T07:19:23;101032.53;;;20.26;100.00
75740;BME280;64357;51.344;6.550;2023-08-12T07:21:50;101019.06;;;20.18;100.00
75740;BME280;64357;51.344;6.550;2023-08-12T07:24:19;101031.28;;;20.34;100.00
75740;BME280;64357;51.344;6.550;2023-08-12T07:26:45;101034.53;;;20.30;100.00
75740;BME280;64357;51.344;6.550;2023-08-12T07:29:10;101042.19;;;20.41;100.00
75740;BME280;64357;51.344;6.550;2023-08-12T07:31:35;101026.53;;;20.27;100.00
75740;BME280;64357;51.344;6.550;2023-08-12T07:34:01;101043.75;;;20.39;100.00
75740;BME280;64357;51.344;6.550;2023-08-12T07:36:26;101026.31;;;20.37;100.00
75740;BME280;64357;51.344;6.550;2023-08-12T07:38:53;101029.22;;;20.41;100.00
75740;BME280;64357;51.344;6.550;2023-08-12T07:41:18;101036.91;;;20.53;100.00
75740;BME280;64357;51.344;6.550;2023-08-12T07:43:43;101037.88;;;20.55;100.00
75740;BME280;64357;51.344;6.550;2023-08-12T07:46:09;101043.03;;;20.68;100.00
75740;BME280;64357;51.344;6.550;2023-08-12T07:48:34;101034.16;;;20.65;100.00
75740;BME280;64357;51.344;6.550;2023-08-12T07:51:01;101034.03;;;20.76;100.00
75740;BME280;64357;51.344;6.550;2023-08-12T07:53:29;101042.72;;;20.92;100.00
75740;BME280;64357;51.344;6.550;2023-08-12T07:55:55;101034.91;;;21.05;100.00
75740;BME280;64357;51.344;6.550;2023-08-12T07:58:21;101028.84;;;20.91;100.00
75740;BME280;64357;51.344;6.550;2023-08-12T08:00:52;101032.72;;;20.98;100.00
75740;BME280;64357;51.344;6.550;2023-08-12T08:03:21;101022.16;;;20.95;100.00
75740;BME280;64357;51.344;6.550;2023-08-12T08:05:52;101025.72;;;20.97;100.00
75740;BME280;64357;51.344;6.550;2023-08-12T08:08:18;101022.06;;;20.93;100.00
75740;BME280;64357;51.344;6.550;2023-08-12T08:10:44;101027.88;;;21.04;100.00
75740;BME280;64357;51.344;6.550;2023-08-12T08:13:12;101022.53;;;21.16;100.00
75740;BME280;64357;51.344;6.550;2023-08-12T08:15:37;101020.59;;;21.26;100.00
75740;BME280;64357;51.344;6.550;2023-08-12T08:18:03;101007.66;;;21.41;100.00
75740;BME280;64357;51.344;6.550;2023-08-12T08:20:31;101017.31;;;21.44;100.00
75740;BME280;64357;51.344;6.550;2023-08-12T08:23:00;101021.88;;;21.63;100.00
75740;BME280;64357;51.344;6.550;2023-08-12T08:25:28;101020.34;;;21.51;100.00
75740;BME280;64357;51.344;6.550;2023-08-12T08:27:53;101032.72;;;21.70;100.00
75740;BME280;64357;51.344;6.550;2023-08-12T08:30:18;101015.69;;;21.61;100.00
75740;BME280;64357;51.344;6.550;2023-08-12T08:32:46;101021.69;;;21.45;100.00
75740;BME280;64357;51.344;6.550;2023-08-12T08:35:12;101014.53;;;21.55;100.00
75740;BME280;64357;51.344;6.550;2023-08-12T08:37:37;101012.81;;;21.56;100.00
75740;BME280;64357;51.344;6.550;2023-08-12T08:40:03;101015.69;;;21.61;100.00
75740;BME280;64357;51.344;6.550;2023-08-12T08:42:29;101020.72;;;21.43;100.00
75740;BME280;64357;51.344;6.550;2023-08-12T08:45:00;101021.28;;;21.52;100.00
75740;BME280;64357;51.344;6.550;2023-08-12T08:47:27;101021.97;;;21.35;100.00
75740;BME280;64357;51.344;6.550;2023-08-12T08:49:58;101028.78;;;21.47;100.00
75740;BME280;64357;51.344;6.550;2023-08-12T08:52:28;101027.97;;;21.34;100.00
75740;BME280;64357;51.344;6.550;2023-08-12T08:54:54;101020.44;;;21.38;100.00
75740;BME280;64357;51.344;6.550;2023-08-12T08:57:21;101024.84;;;21.54;100.00
75740;BME280;64357;51.344;6.550;2023-08-12T08:59:47;101023.69;;;21.49;100.00
75740;BME280;64357;51.344;6.550;2023-08-12T09:02:16;101034.50;;;21.56;100.00
75740;BME280;64357;51.344;6.550;2023-08-12T09:04:49;101039.47;;;21.52;100.00
75740;BME280;64357;51.344;6.550;2023-08-12T09:07:15;101037.13;;;21.42;100.00
75740;BME280;64357;51.344;6.550;2023-08-12T09:09:44;101037.81;;;21.39;100.00
75740;BME280;64357;51.344;6.550;2023-08-12T09:12:13;101037.22;;;21.43;100.00
75740;BME280;64357;51.344;6.550;2023-08-12T09:14:40;101054.97;;;21.36;100.00
75740;BME280;64357;51.344;6.550;2023-08-12T09:17:08;101047.81;;;21.18;100.00
75740;BME280;64357;51.344;6.550;2023-08-12T09:19:36;101047.91;;;21.05;100.00
75740;BME280;64357;51.344;6.550;2023-08-12T09:22:03;101048.06;;;20.93;100.00
75740;BME280;64357;51.344;6.550;2023-08-12T09:24:32;101057.72;;;20.96;100.00
75740;BME280;64357;51.344;6.550;2023-08-12T09:26:58;101057.03;;;20.85;100.00
75740;BME280;64357;51.344;6.550;2023-08-12T09:29:34;101049.34;;;20.87;100.00
75740;BME280;64357;51.344;6.550;2023-08-12T09:32:18;101046.50;;;20.97;100.00
75740;BME280;64357;51.344;6.550;2023-08-12T09:34:50;101047.47;;;21.12;100.00
75740;BME280;64357;51.344;6.550;2023-08-12T09:37:19;101046.03;;;21.17;100.00
75740;BME280;64357;51.344;6.550;2023-08-12T09:39:45;101048.19;;;21.24;100.00
75740;BME280;64357;51.344;6.550;2023-08-12T09:42:12;101057.69;;;21.24;100.00
75740;BME280;64357;51.344;6.550;2023-08-12T09:44:38;101051.47;;;21.35;100.00
75740;BME280;64357;51.344;6.550;2023-08-12T09:47:04;101027.91;;;21.47;100.00
75740;BME280;64357;51.344;6.550;2023-08-12T09:49:37;101040.97;;;21.48;100.00
75740;BME280;64357;51.344;6.550;2023-08-12T09:52:08;101041.81;;;22.08;100.00
75740;BME280;64357;51.344;6.550;2023-08-12T09:54:36;101042.69;;;22.54;100.00
75740;BME280;64357;51.344;6.550;2023-08-12T09:57:02;101030.00;;;22.60;100.00
75740;BME280;64357;51.344;6.550;2023-08-12T09:59:35;101033.22;;;22.87;100.00
75740;BME280;64357;51.344;6.550;2023-08-12T10:02:01;101035.97;;;22.91;100.00
75740;BME280;64357;51.344;6.550;2023-08-12T10:04:39;101037.19;;;22.97;100.00
75740;BME280;64357;51.344;6.550;2023-08-12T10:07:10;101042.00;;;23.06;100.00
75740;BME280;64357;51.344;6.550;2023-08-12T10:09:39;101038.97;;;23.14;100.00
75740;BME280;64357;51.344;6.550;2023-08-12T10:12:06;101046.69;;;22.64;100.00
75740;BME280;64357;51.344;6.550;2023-08-12T10:14:32;101036.50;;;22.85;100.00
75740;BME280;64357;51.344;6.550;2023-08-12T10:16:58;101043.34;;;22.67;100.00
75740;BME280;64357;51.344;6.550;2023-08-12T10:19:24;101035.75;;;22.55;100.00
75740;BME280;64357;51.344;6.550;2023-08-12T10:21:56;101038.84;;;22.48;100.00
75740;BME280;64357;51.344;6.550;2023-08-12T10:24:28;101046.56;;;22.30;100.00
75740;BME280;64357;51.344;6.550;2023-08-12T10:26:54;101052.72;;;22.32;100.00
75740;BME280;64357;51.344;6.550;2023-08-12T10:29:20;101042.72;;;22.23;100.00
75740;BME280;64357;51.344;6.550;2023-08-12T10:31:49;101037.09;;;22.32;100.00
75740;BME280;64357;51.344;6.550;2023-08-12T10:34:21;101030.16;;;22.16;100.00
75740;BME280;64357;51.344;6.550;2023-08-12T10:36:50;101032.19;;;22.22;100.00
75740;BME280;64357;51.344;6.550;2023-08-12T10:39:18;101032.91;;;22.50;100.00
75740;BME280;64357;51.344;6.550;2023-08-12T10:41:50;101035.44;;;22.49;100.00
75740;BME280;64357;51.344;6.550;2023-08-12T10:44:19;101025.13;;;22.67;100.00
75740;BME280;64357;51.344;6.550;2023-08-12T10:46:53;101027.22;;;22.41;100.00
75740;BME280;64357;51.344;6.550;2023-08-12T10:49:20;101034.72;;;22.68;100.00
75740;BME280;64357;51.344;6.550;2023-08-12T11:05:17;101033.81;;;22.67;100.00
75740;BME280;64357;51.344;6.550;2023-08-12T11:08:03;101028.13;;;22.74;100.00
75740;BME280;64357;51.344;6.550;2023-08-12T11:10:32;101026.00;;;22.83;100.00
75740;BME280;64357;51.344;6.550;2023-08-12T11:12:58;101020.53;;;22.94;100.00
75740;BME280;64357;51.344;6.550;2023-08-12T11:15:36;101017.09;;;22.95;100.00
75740;BME280;64357;51.344;6.550;2023-08-12T11:18:08;101024.41;;;23.02;100.00
75740;BME280;64357;51.344;6.550;2023-08-12T11:20:35;101024.47;;;23.03;100.00
75740;BME280;64357;51.344;6.550;2023-08-12T11:23:01;101042.19;;;22.61;100.00
75740;BME280;64357;51.344;6.550;2023-08-12T11:25:31;101031.19;;;21.89;100.00
75740;BME280;64357;51.344;6.550;2023-08-12T11:27:59;101029.41;;;21.43;100.00
75740;BME280;64357;51.344;6.550;2023-08-12T11:30:25;101037.38;;;20.89;100.00
75740;BME280;64357;51.344;6.550;2023-08-12T11:32:53;101031.56;;;20.65;100.00
75740;BME280;64357;51.344;6.550;2023-08-12T11:35:19;101031.16;;;20.87;100.00
75740;BME280;64357;51.344;6.550;2023-08-12T11:37:48;101030.38;;;20.60;100.00
75740;BME280;64357;51.344;6.550;2023-08-12T11:40:16;101036.41;;;20.45;100.00
75740;BME280;64357;51.344;6.550;2023-08-12T11:42:47;101033.13;;;20.35;100.00
75740;BME280;64357;51.344;6.550;2023-08-12T11:45:19;101021.13;;;20.50;100.00
75740;BME280;64357;51.344;6.550;2023-08-12T11:47:45;101034.78;;;20.61;100.00
75740;BME280;64357;51.344;6.550;2023-08-12T11:50:18;101025.88;;;20.85;100.00
75740;BME280;64357;51.344;6.550;2023-08-12T11:52:43;101027.88;;;20.89;100.00
75740;BME280;64357;51.344;6.550;2023-08-12T11:55:11;101034.78;;;21.32;100.00
75740;BME280;64357;51.344;6.550;2023-08-12T11:57:40;101022.88;;;21.65;100.00
75740;BME280;64357;51.344;6.550;2023-08-12T12:00:08;101026.47;;;21.52;100.00
75740;BME280;64357;51.344;6.550;2023-08-12T12:02:48;101025.53;;;21.51;100.00
75740;BME280;64357;51.344;6.550;2023-08-12T12:05:15;101028.41;;;21.56;100.00
75740;BME280;64357;51.344;6.550;2023-08-12T12:07:42;101026.81;;;21.58;100.00
75740;BME280;64357;51.344;6.550;2023-08-12T12:10:12;101027.22;;;21.80;100.00
75740;BME280;64357;51.344;6.550;2023-08-12T12:12:38;101033.63;;;21.71;100.00
75740;BME280;64357;51.344;6.550;2023-08-12T12:15:04;101033.44;;;21.38;100.00
75740;BME280;64357;51.344;6.550;2023-08-12T12:17:30;101035.88;;;21.35;100.00
75740;BME280;64357;51.344;6.550;2023-08-12T12:19:57;101029.34;;;21.42;100.00
75740;BME280;64357;51.344;6.550;2023-08-12T12:22:30;101037.38;;;21.32;100.00
75740;BME280;64357;51.344;6.550;2023-08-12T12:25:05;101026.53;;;21.39;100.00
75740;BME280;64357;51.344;6.550;2023-08-12T12:27:36;101028.13;;;21.51;100.00
75740;BME280;64357;51.344;6.550;2023-08-12T12:30:02;101036.38;;;21.89;100.00
75740;BME280;64357;51.344;6.550;2023-08-12T12:32:28;101028.53;;;22.18;100.00
75740;BME280;64357;51.344;6.550;2023-08-12T12:34:54;101043.81;;;22.43;100.00
75740;BME280;64357;51.344;6.550;2023-08-12T12:37:20;101032.09;;;22.68;100.00
75740;BME280;64357;51.344;6.550;2023-08-12T12:39:45;101037.41;;;22.69;100.00
75740;BME280;64357;51.344;6.550;2023-08-12T12:42:13;101025.75;;;22.79;100.00
75740;BME280;64357;51.344;6.550;2023-08-12T12:44:40;101050.75;;;22.59;100.00
75740;BME280;64357;51.344;6.550;2023-08-12T12:47:06;101035.13;;;22.59;100.00
75740;BME280;64357;51.344;6.550;2023-08-12T12:49:35;101045.81;;;22.64;100.00
75740;BME280;64357;51.344;6.550;2023-08-12T12:52:00;101045.84;;;22.49;100.00
75740;BME280;64357;51.344;6.550;2023-08-12T12:54:26;101052.50;;;22.44;100.00
75740;BME280;64357;51.344;6.550;2023-08-12T14:23:42;101103.59;;;23.54;96.59
75740;BME280;64357;51.344;6.550;2023-08-12T14:44:25;101115.06;;;23.74;86.46
75740;BME280;64357;51.344;6.550;2023-08-12T15:12:03;101121.31;;;23.94;72.29
75740;BME280;64357;51.344;6.550;2023-08-12T15:18:20;101087.66;;;23.64;72.09
75740;BME280;64357;51.344;6.550;2023-08-12T15:20:46;101117.75;;;24.10;72.27
75740;BME280;64357;51.344;6.550;2023-08-12T15:23:11;101101.59;;;23.83;70.44
75740;BME280;64357;51.344;6.550;2023-08-12T15:25:36;101111.16;;;24.00;70.47
75740;BME280;64357;51.344;6.550;2023-08-12T15:28:02;101107.16;;;24.07;71.25
75740;BME280;64357;51.344;6.550;2023-08-12T15:30:31;101124.63;;;24.43;69.76
75740;BME280;64357;51.344;6.550;2023-08-12T15:32:59;101112.13;;;24.02;70.51
75740;BME280;64357;51.344;6.550;2023-08-12T15:35:28;101114.31;;;23.93;69.89
75740;BME280;64357;51.344;6.550;2023-08-12T15:37:53;101123.19;;;23.80;70.54
75740;BME280;64357;51.344;6.550;2023-08-12T15:40:20;101117.63;;;23.90;70.59